createdAt,value
2019-02-25T00:03:59.157Z,23.00
2019-02-25T00:08:11.863Z,17.80
2019-02-25T00:12:13.239Z,15.77
2019-02-25T00:16:25.930Z,18.23
2019-02-25T00:20:34.799Z,18.73
2019-02-25T00:24:40.034Z,11.70
2019-02-25T00:28:46.013Z,11.17
2019-02-25T00:32:57.768Z,10.60
2019-02-25T00:37:03.673Z,9.43
2019-02-25T00:41:11.829Z,7.83
2019-02-25T00:45:17.842Z,10.63
2019-02-25T00:49:21.996Z,9.00
2019-02-25T00:53:32.614Z,10.57
2019-02-25T00:57:38.205Z,8.67
2019-02-25T01:01:42.969Z,8.70
2019-02-25T01:05:54.130Z,11.57
2019-02-25T01:10:02.144Z,10.67
2019-02-25T01:14:07.284Z,9.53
2019-02-25T01:18:10.998Z,14.97
2019-02-25T01:22:16.593Z,11.43
2019-02-25T01:26:22.525Z,11.00
2019-02-25T01:30:27.709Z,11.27
2019-02-25T01:34:33.253Z,15.07
2019-02-25T01:38:40.151Z,13.13
2019-02-25T01:42:45.665Z,13.10
2019-02-25T01:46:49.387Z,12.80
2019-02-25T01:50:55.193Z,14.27
2019-02-25T01:55:01.832Z,12.67
2019-02-25T01:59:05.459Z,14.50
2019-02-25T02:03:10.937Z,11.70
2019-02-25T02:07:18.372Z,13.10
2019-02-25T02:11:25.173Z,11.27
2019-02-25T02:15:28.912Z,13.13
2019-02-25T02:19:40.645Z,14.00
2019-02-25T02:23:46.374Z,14.47
2019-02-25T02:27:50.105Z,11.53
2019-02-25T02:31:53.952Z,12.20
2019-02-25T02:36:04.580Z,11.97
2019-02-25T02:40:11.991Z,16.47
2019-02-25T02:44:22.365Z,12.63
2019-02-25T02:48:38.352Z,10.93
2019-02-25T02:52:46.364Z,12.40
2019-02-25T02:56:52.031Z,15.73
2019-02-25T03:00:56.863Z,11.23
2019-02-25T03:05:02.581Z,9.60
2019-02-25T03:09:11.210Z,13.33
2019-02-25T03:13:16.618Z,12.97
2019-02-25T03:17:23.727Z,9.80
2019-02-25T03:21:30.912Z,14.37
2019-02-25T03:25:37.784Z,13.40
2019-02-25T03:29:43.341Z,10.13
2019-02-25T03:33:46.966Z,10.40
2019-02-25T03:37:51.873Z,9.93
2019-02-25T03:41:55.715Z,10.93
2019-02-25T03:46:01.312Z,12.43
2019-02-25T03:50:06.086Z,12.13
2019-02-25T03:54:09.726Z,12.40
2019-02-25T03:58:15.371Z,11.77
2019-02-25T04:02:24.067Z,14.70
2019-02-25T04:06:27.923Z,12.00
2019-02-25T04:10:31.707Z,10.90
2019-02-25T04:14:36.066Z,8.73
2019-02-25T04:18:39.209Z,11.17
2019-02-25T04:22:42.281Z,11.07
2019-02-25T04:26:45.307Z,14.10
2019-02-25T04:30:48.352Z,10.90
2019-02-25T04:34:51.414Z,10.00
2019-02-25T04:38:54.472Z,12.23
2019-02-25T04:42:57.614Z,12.53
2019-02-25T04:47:00.673Z,9.13
2019-02-25T04:51:03.720Z,13.00
2019-02-25T04:55:08.819Z,9.80
2019-02-25T04:59:11.855Z,10.53
2019-02-25T05:03:14.904Z,11.17
2019-02-25T05:07:18.267Z,12.50
2019-02-25T05:11:23.225Z,12.53
2019-02-25T05:15:28.745Z,15.70
2019-02-25T05:19:32.126Z,15.03
2019-02-25T05:23:35.189Z,16.77
2019-02-25T05:27:38.219Z,13.77
2019-02-25T05:31:41.362Z,14.37
2019-02-25T05:35:44.516Z,13.10
2019-02-25T05:39:47.602Z,13.00
2019-02-25T05:43:50.703Z,12.87
2019-02-25T05:47:53.808Z,11.90
2019-02-25T05:51:56.862Z,15.73
2019-02-25T05:55:59.922Z,17.80
2019-02-25T06:00:06.787Z,20.80
2019-02-25T06:04:09.895Z,23.13
2019-02-25T06:08:13.045Z,17.43
2019-02-25T06:12:16.090Z,20.70
2019-02-25T06:16:20.773Z,21.00
2019-02-25T06:20:23.831Z,17.30
2019-02-25T06:24:26.927Z,16.67
2019-02-25T06:28:29.989Z,15.20
2019-02-25T06:32:33.064Z,16.47
2019-02-25T06:36:36.146Z,13.43
2019-02-25T06:40:39.234Z,16.37
2019-02-25T06:44:42.274Z,15.70
2019-02-25T06:48:45.323Z,19.93
2019-02-25T06:52:48.426Z,19.33
2019-02-25T06:56:51.468Z,25.20
2019-02-25T07:00:54.515Z,48.83
2019-02-25T07:04:59.453Z,28.17
2019-02-25T07:09:05.303Z,23.27
2019-02-25T07:13:10.225Z,14.37
2019-02-25T07:17:32.977Z,14.10
2019-02-25T07:21:46.678Z,18.17
2019-02-25T07:25:54.131Z,15.77
2019-02-25T07:29:59.072Z,14.50
2019-02-25T07:34:19.087Z,15.43
2019-02-25T07:38:39.846Z,16.60
2019-02-25T07:42:45.117Z,20.83
2019-02-25T07:46:50.077Z,14.10
2019-02-25T07:50:57.719Z,11.90
2019-02-25T07:55:14.714Z,11.43
2019-02-25T07:59:31.969Z,12.00
2019-02-25T08:03:39.924Z,11.83
2019-02-25T08:08:01.314Z,12.93
2019-02-25T08:12:12.042Z,13.80
2019-02-25T08:16:29.077Z,13.13
2019-02-25T08:20:36.651Z,14.10
2019-02-25T08:24:47.763Z,13.43
2019-02-25T08:29:01.866Z,14.20
2019-02-25T08:33:13.240Z,14.40
2019-02-25T08:37:27.801Z,12.10
2019-02-25T08:41:33.085Z,12.00
2019-02-25T08:45:38.107Z,10.73
2019-02-25T08:49:43.078Z,13.50
2019-02-25T08:53:46.197Z,11.97
2019-02-25T08:57:49.576Z,9.53
2019-02-25T09:01:52.697Z,10.20
2019-02-25T09:05:55.773Z,10.27
2019-02-25T09:09:58.818Z,18.80
2019-02-25T09:14:01.867Z,10.73
2019-02-25T09:18:04.719Z,11.13
2019-02-25T09:22:08.786Z,9.70
2019-02-25T09:26:12.006Z,9.57
2019-02-25T09:30:16.529Z,11.10
2019-02-25T09:34:19.680Z,9.83
2019-02-25T09:38:23.627Z,9.90
2019-02-25T09:42:26.850Z,10.07
2019-02-25T09:46:29.891Z,9.93
2019-02-25T09:50:32.925Z,22.90
2019-02-25T09:54:35.958Z,10.17
2019-02-25T09:58:39.007Z,10.53
2019-02-25T10:02:42.042Z,12.13
2019-02-25T10:06:45.169Z,10.50
2019-02-25T10:10:48.213Z,9.40
2019-02-25T10:14:51.269Z,10.50
2019-02-25T10:18:54.353Z,10.60
2019-02-25T10:22:58.549Z,9.50
2019-02-25T10:27:01.609Z,10.50
2019-02-25T10:31:04.644Z,9.67
2019-02-25T10:35:13.495Z,9.17
2019-02-25T10:39:17.926Z,9.27
2019-02-25T10:43:21.665Z,8.23
2019-02-25T10:47:24.727Z,7.40
2019-02-25T10:51:27.768Z,8.90
2019-02-25T10:55:47.296Z,8.17
2019-02-25T10:59:51.622Z,7.80
2019-02-25T11:03:54.656Z,8.87
2019-02-25T11:07:58.297Z,7.50
2019-02-25T11:12:01.467Z,7.03
2019-02-25T11:16:04.805Z,8.20
2019-02-25T11:20:12.284Z,7.50
2019-02-25T11:24:18.261Z,7.93
2019-02-25T11:28:25.575Z,7.60
2019-02-25T11:32:27.958Z,8.90
2019-02-25T11:36:31.298Z,8.00
2019-02-25T11:40:36.540Z,8.53
2019-02-25T11:44:39.367Z,10.77
2019-02-25T11:48:42.406Z,10.80
2019-02-25T11:52:45.528Z,8.43
2019-02-25T11:56:48.568Z,15.77
2019-02-25T12:00:51.620Z,11.53
2019-02-25T12:04:54.651Z,12.83
2019-02-25T12:08:57.824Z,7.57
2019-02-25T12:13:00.875Z,10.03
2019-02-25T12:17:03.904Z,7.60
2019-02-25T12:21:07.013Z,8.40
2019-02-25T12:25:13.161Z,7.67
2019-02-25T12:29:16.281Z,8.00
2019-02-25T12:33:19.349Z,9.67
2019-02-25T12:37:22.400Z,10.03
2019-02-25T12:41:27.241Z,9.33
2019-02-25T12:45:30.524Z,6.90
2019-02-25T12:49:33.582Z,8.43
2019-02-25T12:53:37.856Z,8.97
2019-02-25T12:57:41.112Z,8.00
2019-02-25T13:01:44.188Z,7.77
2019-02-25T13:05:47.218Z,8.87
2019-02-25T13:09:50.355Z,8.70
2019-02-25T13:13:53.406Z,8.30
2019-02-25T13:17:56.457Z,7.43
2019-02-25T13:21:59.551Z,8.40
2019-02-25T13:26:07.454Z,7.80
2019-02-25T13:30:12.133Z,9.23
2019-02-25T13:34:15.300Z,8.00
2019-02-25T13:38:18.341Z,7.60
2019-02-25T13:42:21.501Z,7.90
2019-02-25T13:46:24.675Z,7.90
2019-02-25T13:50:28.118Z,7.37
2019-02-25T13:54:31.445Z,10.20
2019-02-25T13:58:34.604Z,10.30
2019-02-25T14:02:37.828Z,11.23
2019-02-25T14:06:40.977Z,6.80
2019-02-25T14:10:44.235Z,7.57
2019-02-25T14:14:47.713Z,9.07
2019-02-25T14:18:50.878Z,8.23
2019-02-25T14:22:54.028Z,6.73
2019-02-25T14:26:58.590Z,7.27
2019-02-25T14:31:01.596Z,7.70
2019-02-25T14:35:07.874Z,7.87
2019-02-25T14:39:24.894Z,8.50
2019-02-25T14:43:25.441Z,8.20
2019-02-25T14:47:34.773Z,9.40
2019-02-25T14:51:35.291Z,7.23
2019-02-25T14:55:40.706Z,9.27
2019-02-25T14:59:43.451Z,7.60
2019-02-25T15:03:46.452Z,7.57
2019-02-25T15:07:50.845Z,8.03
2019-02-25T15:11:55.905Z,8.37
2019-02-25T15:15:59.652Z,7.43
2019-02-25T15:20:06.070Z,9.80
2019-02-25T15:24:10.474Z,6.40
2019-02-25T15:28:16.154Z,8.13
2019-02-25T15:32:19.650Z,6.70
2019-02-25T15:36:24.842Z,6.00
2019-02-25T15:40:31.756Z,6.33
2019-02-25T15:44:40.334Z,6.90
2019-02-25T15:48:44.091Z,7.50
2019-02-25T15:52:50.934Z,6.90
2019-02-25T15:56:54.000Z,7.50
2019-02-25T16:00:57.178Z,12.10
2019-02-25T16:05:00.983Z,9.10
2019-02-25T16:09:05.781Z,9.97
2019-02-25T16:13:12.266Z,9.30
2019-02-25T16:17:13.974Z,7.50
2019-02-25T16:21:16.982Z,8.00
2019-02-25T16:25:22.962Z,7.40
2019-02-25T16:29:26.543Z,8.30
2019-02-25T16:33:30.804Z,8.53
2019-02-25T16:37:35.559Z,7.40
2019-02-25T16:41:39.346Z,12.73
2019-02-25T16:45:45.287Z,16.30
2019-02-25T16:49:50.334Z,23.93
2019-02-25T16:53:54.033Z,27.27
2019-02-25T16:57:58.935Z,21.63
2019-02-25T17:02:02.827Z,19.50
2019-02-25T17:06:08.636Z,17.03
2019-02-25T17:10:16.691Z,9.37
2019-02-25T17:14:21.701Z,11.00
2019-02-25T17:18:24.915Z,11.80
2019-02-25T17:22:29.882Z,14.27
2019-02-25T17:26:34.080Z,12.30
2019-02-25T17:30:38.539Z,9.60
2019-02-25T17:34:43.791Z,8.80
2019-02-25T17:38:47.595Z,9.37
2019-02-25T17:42:53.756Z,9.93
2019-02-25T17:46:57.928Z,11.17
2019-02-25T17:51:03.385Z,12.47
2019-02-25T17:55:12.274Z,13.00
2019-02-25T17:59:15.378Z,13.60
2019-02-25T18:03:19.531Z,18.67
2019-02-25T18:07:23.275Z,25.10
2019-02-25T18:11:26.367Z,21.43
2019-02-25T18:15:32.319Z,19.27
2019-02-25T18:19:35.922Z,15.60
2019-02-25T18:23:39.002Z,14.10
2019-02-25T18:27:43.997Z,12.87
2019-02-25T18:31:49.118Z,12.97
2019-02-25T18:35:52.604Z,15.63
2019-02-25T18:39:56.533Z,13.73
2019-02-25T18:43:59.695Z,21.23
2019-02-25T18:48:02.850Z,16.47
2019-02-25T18:52:06.064Z,15.27
2019-02-25T18:56:11.672Z,19.93
2019-02-25T19:00:28.390Z,24.47
2019-02-25T19:04:31.683Z,18.80
2019-02-25T19:08:34.887Z,19.07
2019-02-25T19:12:39.570Z,19.60
2019-02-25T19:16:44.146Z,23.07
2019-02-25T19:20:48.268Z,23.93
2019-02-25T19:24:51.576Z,21.80
2019-02-25T19:28:56.832Z,20.90
2019-02-25T19:33:10.900Z,17.93
2019-02-25T19:37:09.313Z,20.13
2019-02-25T19:41:15.269Z,17.90
2019-02-25T19:45:19.220Z,16.80
2019-02-25T19:49:22.418Z,14.83
2019-02-25T19:53:25.679Z,17.40
2019-02-25T19:57:30.684Z,12.57
2019-02-25T20:01:35.806Z,14.43
2019-02-25T20:05:43.304Z,12.93
2019-02-25T20:09:43.874Z,13.57
2019-02-25T20:13:46.939Z,15.03
2019-02-25T20:17:51.138Z,13.83
2019-02-25T20:21:56.776Z,13.00
2019-02-25T20:25:59.929Z,15.60
2019-02-25T20:30:09.202Z,14.83
2019-02-25T20:34:16.579Z,14.20
2019-02-25T20:38:18.084Z,16.03
2019-02-25T20:42:22.313Z,13.17
2019-02-25T20:46:26.314Z,14.30
2019-02-25T20:50:30.997Z,19.63
2019-02-25T20:54:37.884Z,17.27
2019-02-25T20:58:40.178Z,16.37
2019-02-25T21:02:43.881Z,30.93
2019-02-25T21:06:46.858Z,28.10
2019-02-25T21:10:49.968Z,27.10
2019-02-25T21:14:52.966Z,18.30
2019-02-25T21:18:55.983Z,24.60
2019-02-25T21:23:03.563Z,21.57
2019-02-25T21:27:05.866Z,26.63
2019-02-25T21:31:13.601Z,20.07
2019-02-25T21:35:15.279Z,22.57
2019-02-25T21:39:19.161Z,18.33
2019-02-25T21:43:24.129Z,16.00
2019-02-25T21:47:28.782Z,16.40
2019-02-25T21:51:34.556Z,15.40
2019-02-25T21:55:37.046Z,15.93
2019-02-25T21:59:41.054Z,20.70
2019-02-25T22:03:48.038Z,13.63
2019-02-25T22:07:52.359Z,14.30
2019-02-25T22:11:54.052Z,15.50
2019-02-25T22:15:58.974Z,13.57
2019-02-25T22:20:04.818Z,14.93
2019-02-25T22:24:09.601Z,14.80
2019-02-25T22:28:12.773Z,15.70
2019-02-25T22:32:15.783Z,16.93
2019-02-25T22:36:19.039Z,15.20
2019-02-25T22:40:22.025Z,13.83
2019-02-25T22:44:26.851Z,13.33
2019-02-25T22:48:29.975Z,13.43
2019-02-25T22:52:33.551Z,14.90
2019-02-25T22:56:37.952Z,14.87
2019-02-25T23:00:45.691Z,17.50
2019-02-25T23:04:49.619Z,13.30
2019-02-25T23:08:55.549Z,14.17
2019-02-25T23:12:58.466Z,18.40
2019-02-25T23:17:04.584Z,16.20
2019-02-25T23:21:06.431Z,30.30
2019-02-25T23:25:10.626Z,12.53
2019-02-25T23:29:15.067Z,15.03
2019-02-25T23:33:21.301Z,15.73
2019-02-25T23:37:25.792Z,17.30
2019-02-25T23:41:31.914Z,16.40
2019-02-25T23:45:35.607Z,14.27
2019-02-25T23:49:38.974Z,16.77
2019-02-25T23:53:43.526Z,17.83
2019-02-25T23:57:46.540Z,17.17
